Time;durP1;ratioP1;P1;durP2;ratioP2;P2;SDS_P1;SDS_P2;PMS_P1;PMS_P2;Temp;Humidity;BMP_temperature;BMP_pressure;BME280_temperature;BME280_humidity;BME280_pressure;Samples;Min_cycle;Max_cycle;Signal;HPM_P1;HPM_P2
2023/02/11 00:02:20;;;;;;;42.90;22.67;;;;;;;;;;5094239;28;20483;-72
2023/02/11 00:04:48;;;;;;;39.97;23.50;;;;;;;;;;5097978;28;20446;-72
2023/02/11 00:07:16;;;;;;;38.00;21.50;;;;;;;;;;5098482;28;20436;-72
2023/02/11 00:09:44;;;;;;;36.90;21.47;;;;;;;;;;5098042;28;20528;-72
2023/02/11 00:12:12;;;;;;;38.20;21.30;;;;;;;;;;5097618;28;20463;-72
2023/02/11 00:14:40;;;;;;;130.77;34.73;;;;;;;;;;5098146;28;20472;-72
2023/02/11 00:17:08;;;;;;;162.73;38.47;;;;;;;;;;5094360;28;20450;-72
2023/02/11 00:19:38;;;;;;;409.43;122.03;;;;;;;;;;5097574;28;20440;-72
2023/02/11 00:22:06;;;;;;;265.43;64.47;;;;;;;;;;5098007;28;20467;-72
2023/02/11 00:24:35;;;;;;;170.63;46.20;;;;;;;;;;5097749;28;20463;-71
2023/02/11 00:27:03;;;;;;;129.67;39.43;;;;;;;;;;5097924;28;20467;-72
2023/02/11 00:29:31;;;;;;;127.10;43.17;;;;;;;;;;5097578;28;21208;-72
2023/02/11 00:32:04;;;;;;;67.63;28.57;;;;;;;;;;5091781;28;20452;-71
2023/02/11 00:34:32;;;;;;;51.80;25.77;;;;;;;;;;5091267;28;20499;-71
2023/02/11 00:37:01;;;;;;;51.87;26.13;;;;;;;;;;5097721;28;20503;-71
2023/02/11 00:39:29;;;;;;;80.97;44.77;;;;;;;;;;5097933;28;21004;-72
2023/02/11 00:41:57;;;;;;;105.40;54.67;;;;;;;;;;5098012;28;20527;-72
2023/02/11 00:44:25;;;;;;;48.00;27.53;;;;;;;;;;5098159;28;20539;-72
2023/02/11 00:46:53;;;;;;;45.10;22.63;;;;;;;;;;5097822;28;20446;-71
2023/02/11 00:49:21;;;;;;;37.83;21.77;;;;;;;;;;5097486;28;20871;-72
2023/02/11 00:51:49;;;;;;;41.30;21.60;;;;;;;;;;5097982;28;20443;-72
2023/02/11 00:54:19;;;;;;;43.77;23.83;;;;;;;;;;5097716;28;20903;-72
2023/02/11 00:56:46;;;;;;;44.73;23.13;;;;;;;;;;5097932;28;20463;-71
2023/02/11 00:59:14;;;;;;;33.30;20.00;;;;;;;;;;5097908;28;20447;-71
2023/02/11 01:01:42;;;;;;;41.30;23.53;;;;;;;;;;5096942;28;20466;-72
2023/02/11 01:04:10;;;;;;;40.33;23.00;;;;;;;;;;5097478;28;20471;-72
2023/02/11 01:06:38;;;;;;;47.23;22.50;;;;;;;;;;5097280;28;20527;-72
2023/02/11 01:09:06;;;;;;;42.20;22.63;;;;;;;;;;5097812;28;20566;-72
2023/02/11 01:11:36;;;;;;;38.27;21.40;;;;;;;;;;5097577;28;20439;-72
2023/02/11 01:14:04;;;;;;;45.77;23.47;;;;;;;;;;5097486;28;20475;-72
2023/02/11 01:16:32;;;;;;;43.07;24.00;;;;;;;;;;5097625;28;20471;-72
2023/02/11 01:19:00;;;;;;;39.70;23.13;;;;;;;;;;5097840;28;20459;-73
2023/02/11 01:21:28;;;;;;;49.13;25.20;;;;;;;;;;5097020;28;20520;-72
2023/02/11 01:23:56;;;;;;;40.80;23.77;;;;;;;;;;5100238;28;21001;-72
2023/02/11 01:26:24;;;;;;;42.33;23.50;;;;;;;;;;5101375;28;20942;-72
2023/02/11 01:28:53;;;;;;;40.13;24.17;;;;;;;;;;5101488;28;20444;-72
2023/02/11 01:31:21;;;;;;;40.13;23.83;;;;;;;;;;5097942;28;20559;-72
2023/02/11 01:33:50;;;;;;;39.97;23.50;;;;;;;;;;5100238;28;20482;-72
2023/02/11 01:36:18;;;;;;;41.40;22.97;;;;;;;;;;5100787;28;20477;-72
2023/02/11 01:38:46;;;;;;;37.47;22.07;;;;;;;;;;5101174;28;20955;-72
2023/02/11 01:41:14;;;;;;;41.27;23.87;;;;;;;;;;5101515;28;20435;-72
2023/02/11 01:43:43;;;;;;;39.03;23.33;;;;;;;;;;5100941;28;20463;-72
2023/02/11 01:46:21;;;;;;;48.90;24.27;;;;;;;;;;5101056;28;20475;-72
2023/02/11 01:48:52;;;;;;;39.80;23.53;;;;;;;;;;5101373;28;20443;-71
2023/02/11 01:51:22;;;;;;;38.20;24.20;;;;;;;;;;5100533;28;20479;-72
2023/02/11 01:59:34;;;;;;;40.97;22.90;;;;;;;;;;5064889;28;20446;-72
2023/02/11 02:02:05;;;;;;;39.37;22.07;;;;;;;;;;5100343;28;20780;-72
2023/02/11 02:04:38;;;;;;;43.63;24.23;;;;;;;;;;5100455;28;20464;-72
2023/02/11 02:07:08;;;;;;;49.93;25.70;;;;;;;;;;5100810;28;20926;-72
2023/02/11 02:09:38;;;;;;;45.07;24.53;;;;;;;;;;5100552;28;20565;-72
2023/02/11 02:12:06;;;;;;;42.33;23.67;;;;;;;;;;5100854;28;20439;-72
2023/02/11 02:14:37;;;;;;;46.90;26.20;;;;;;;;;;5100476;28;21006;-71
2023/02/11 02:17:05;;;;;;;44.37;24.03;;;;;;;;;;5098547;28;20479;-71
2023/02/11 02:19:49;;;;;;;49.67;25.90;;;;;;;;;;5100292;28;20486;-72
2023/02/11 02:22:35;;;;;;;43.27;24.13;;;;;;;;;;5100726;28;20440;-71
2023/02/11 02:25:14;;;;;;;41.70;24.40;;;;;;;;;;5100489;28;20550;-72
2023/02/11 02:27:47;;;;;;;39.77;24.93;;;;;;;;;;5100314;28;20507;-72
2023/02/11 02:30:30;;;;;;;48.57;25.23;;;;;;;;;;5100438;28;20482;-71
2023/02/11 02:33:06;;;;;;;44.70;24.10;;;;;;;;;;5094413;28;20497;-72
2023/02/11 02:35:53;;;;;;;43.33;26.63;;;;;;;;;;5098744;28;20483;-73
2023/02/11 02:38:23;;;;;;;47.53;25.80;;;;;;;;;;5100186;28;20465;-72
2023/02/11 02:40:53;;;;;;;49.23;25.17;;;;;;;;;;5100300;28;20444;-72
2023/02/11 02:43:22;;;;;;;50.37;26.93;;;;;;;;;;5100221;28;20466;-72
2023/02/11 02:45:50;;;;;;;46.57;26.07;;;;;;;;;;5086119;28;20897;-72
2023/02/11 02:48:27;;;;;;;40.27;23.87;;;;;;;;;;5087614;28;20931;-72
2023/02/11 02:51:02;;;;;;;44.73;25.17;;;;;;;;;;5099470;28;20845;-72
2023/02/11 02:53:38;;;;;;;45.67;27.07;;;;;;;;;;5100107;28;20481;-72
2023/02/11 02:56:08;;;;;;;44.57;24.73;;;;;;;;;;5099809;28;20535;-72
2023/02/11 02:58:48;;;;;;;42.30;24.80;;;;;;;;;;5100067;28;20450;-72
2023/02/11 03:01:21;;;;;;;46.23;25.83;;;;;;;;;;5092593;28;20531;-71
2023/02/11 03:03:55;;;;;;;48.50;25.43;;;;;;;;;;5093984;28;20490;-72
2023/02/11 03:06:28;;;;;;;43.03;25.67;;;;;;;;;;5099544;28;20439;-72
2023/02/11 03:08:59;;;;;;;42.37;24.37;;;;;;;;;;5099508;28;20454;-72
2023/02/11 03:11:28;;;;;;;45.33;26.73;;;;;;;;;;5099460;28;20562;-71
2023/02/11 03:13:57;;;;;;;44.60;25.13;;;;;;;;;;5099590;28;20468;-72
2023/02/11 03:16:26;;;;;;;47.40;25.23;;;;;;;;;;5090716;28;20456;-72
2023/02/11 03:18:59;;;;;;;44.23;26.23;;;;;;;;;;5098222;28;20450;-72
2023/02/11 03:21:27;;;;;;;42.63;24.47;;;;;;;;;;5098973;28;20474;-72
2023/02/11 03:23:56;;;;;;;45.50;25.27;;;;;;;;;;5099475;28;20498;-72
2023/02/11 03:26:26;;;;;;;39.93;25.33;;;;;;;;;;5099419;28;20451;-71
2023/02/11 03:28:55;;;;;;;45.43;24.93;;;;;;;;;;5099517;28;20454;-72
2023/02/11 03:31:27;;;;;;;41.73;23.30;;;;;;;;;;5092055;28;20480;-72
2023/02/11 03:34:01;;;;;;;41.10;23.87;;;;;;;;;;5093153;28;20489;-72
2023/02/11 03:36:39;;;;;;;41.20;23.63;;;;;;;;;;5098632;28;20503;-72
2023/02/11 03:39:09;;;;;;;46.23;24.93;;;;;;;;;;5099219;28;20452;-72
2023/02/11 03:41:37;;;;;;;42.70;26.10;;;;;;;;;;5099177;28;20440;-72
2023/02/11 03:44:06;;;;;;;39.27;24.43;;;;;;;;;;5098742;28;20465;-72
2023/02/11 03:46:37;;;;;;;46.90;23.97;;;;;;;;;;5098866;28;20444;-72
2023/02/11 03:49:09;;;;;;;41.13;24.97;;;;;;;;;;5099020;28;20452;-72
2023/02/11 03:51:38;;;;;;;42.30;24.07;;;;;;;;;;5098679;28;20483;-72
2023/02/11 03:54:10;;;;;;;48.13;26.30;;;;;;;;;;5085640;28;20469;-74
2023/02/11 03:56:42;;;;;;;40.60;23.87;;;;;;;;;;5098883;28;20472;-73
2023/02/11 03:59:10;;;;;;;43.60;23.60;;;;;;;;;;5099245;28;20535;-72
2023/02/11 04:01:38;;;;;;;42.87;23.70;;;;;;;;;;5097902;28;20487;-72
2023/02/11 04:04:07;;;;;;;38.23;21.50;;;;;;;;;;5098526;28;20502;-72
2023/02/11 04:06:35;;;;;;;36.77;22.47;;;;;;;;;;5098410;28;20964;-74
2023/02/11 04:09:03;;;;;;;36.70;21.63;;;;;;;;;;5098340;28;20471;-72
2023/02/11 04:11:31;;;;;;;41.40;23.63;;;;;;;;;;5098648;28;20566;-72
2023/02/11 04:13:59;;;;;;;36.70;21.77;;;;;;;;;;5098472;28;20466;-71
2023/02/11 04:16:28;;;;;;;38.20;23.10;;;;;;;;;;5089271;28;20456;-72
2023/02/11 04:18:56;;;;;;;39.80;23.53;;;;;;;;;;5095703;28;20497;-72
2023/02/11 04:21:26;;;;;;;41.57;23.50;;;;;;;;;;5097896;28;20493;-72
2023/02/11 04:23:54;;;;;;;34.73;21.77;;;;;;;;;;5098067;28;20491;-72
2023/02/11 04:26:22;;;;;;;36.63;22.43;;;;;;;;;;5098156;28;20478;-72
2023/02/11 04:28:50;;;;;;;39.23;22.93;;;;;;;;;;5098002;28;20877;-72
2023/02/11 04:31:18;;;;;;;40.07;22.80;;;;;;;;;;5092657;28;20562;-72
2023/02/11 04:33:46;;;;;;;39.40;22.60;;;;;;;;;;5092239;28;20478;-72
2023/02/11 04:36:14;;;;;;;40.80;22.60;;;;;;;;;;5096251;28;20483;-71
2023/02/11 04:38:43;;;;;;;41.77;22.53;;;;;;;;;;5097280;28;20801;-72
2023/02/11 04:41:11;;;;;;;38.37;22.13;;;;;;;;;;5097938;28;20451;-72
2023/02/11 04:43:39;;;;;;;35.57;22.23;;;;;;;;;;5097914;28;20471;-72
2023/02/11 04:46:07;;;;;;;37.70;21.97;;;;;;;;;;5097884;28;20467;-71
2023/02/11 04:48:35;;;;;;;40.37;21.83;;;;;;;;;;5098147;28;20452;-71
2023/02/11 04:51:03;;;;;;;41.20;20.83;;;;;;;;;;5097660;28;20490;-72
2023/02/11 04:53:32;;;;;;;39.03;22.87;;;;;;;;;;5097676;28;20495;-72
2023/02/11 04:56:01;;;;;;;34.93;20.40;;;;;;;;;;5097847;28;20457;-71
2023/02/11 04:58:29;;;;;;;46.10;21.37;;;;;;;;;;5101846;28;20451;-72
2023/02/11 05:01:04;;;;;;;39.37;22.90;;;;;;;;;;5103629;28;20459;-72
2023/02/11 05:03:32;;;;;;;41.63;22.17;;;;;;;;;;5104343;28;20467;-72
2023/02/11 05:06:00;;;;;;;41.23;22.77;;;;;;;;;;5104136;28;20803;-72
2023/02/11 05:08:28;;;;;;;39.90;23.50;;;;;;;;;;5104678;28;20443;-72
2023/02/11 05:10:56;;;;;;;37.67;22.83;;;;;;;;;;5104667;28;20530;-72
2023/02/11 05:13:26;;;;;;;39.03;21.70;;;;;;;;;;5104576;28;20459;-72
2023/02/11 05:15:54;;;;;;;41.90;23.20;;;;;;;;;;5100321;28;20444;-72
2023/02/11 05:18:23;;;;;;;39.83;24.33;;;;;;;;;;5099310;28;20815;-72
2023/02/11 05:20:51;;;;;;;40.90;23.73;;;;;;;;;;5103917;28;20435;-72
2023/02/11 05:23:19;;;;;;;45.00;25.40;;;;;;;;;;5104157;28;20463;-72
2023/02/11 05:25:47;;;;;;;42.90;24.63;;;;;;;;;;5104251;28;20474;-72
2023/02/11 05:28:15;;;;;;;45.47;24.93;;;;;;;;;;5104384;28;20447;-72
2023/02/11 05:30:45;;;;;;;41.37;24.60;;;;;;;;;;5101531;28;20447;-72
2023/02/11 05:33:13;;;;;;;45.03;24.90;;;;;;;;;;5094156;28;20489;-72
2023/02/11 05:35:41;;;;;;;41.43;23.13;;;;;;;;;;5103518;28;20918;-71
2023/02/11 05:38:09;;;;;;;46.93;24.63;;;;;;;;;;5104451;28;20470;-72
2023/02/11 05:40:37;;;;;;;44.67;25.40;;;;;;;;;;5104078;28;20450;-72
2023/02/11 05:43:05;;;;;;;44.20;23.17;;;;;;;;;;5104348;28;20451;-72
2023/02/11 05:45:34;;;;;;;41.67;24.50;;;;;;;;;;5104278;28;20471;-72
2023/02/11 05:48:04;;;;;;;42.03;22.77;;;;;;;;;;5104122;28;20934;-72
2023/02/11 05:50:31;;;;;;;42.27;23.80;;;;;;;;;;5103894;28;20482;-72
2023/02/11 05:52:59;;;;;;;37.77;23.27;;;;;;;;;;5103851;28;20494;-72
2023/02/11 05:55:28;;;;;;;42.87;23.80;;;;;;;;;;5104225;28;20444;-72
2023/02/11 05:57:55;;;;;;;43.47;23.47;;;;;;;;;;5104325;28;20443;-72
2023/02/11 06:00:24;;;;;;;39.57;22.40;;;;;;;;;;5103109;28;20447;-72
2023/02/11 06:02:52;;;;;;;44.10;22.33;;;;;;;;;;5103824;28;20474;-72
2023/02/11 06:05:21;;;;;;;37.07;21.60;;;;;;;;;;5103817;28;20443;-72
2023/02/11 06:07:49;;;;;;;40.17;22.53;;;;;;;;;;5090681;28;20934;-72
2023/02/11 06:10:17;;;;;;;42.17;23.27;;;;;;;;;;5100234;28;20535;-72
2023/02/11 06:12:45;;;;;;;38.37;21.77;;;;;;;;;;5100485;28;20624;-72
2023/02/11 06:15:13;;;;;;;39.97;21.20;;;;;;;;;;5100894;28;20450;-74
2023/02/11 06:17:41;;;;;;;38.30;21.93;;;;;;;;;;5089492;28;20986;-72
2023/02/11 06:20:10;;;;;;;35.40;21.50;;;;;;;;;;5100055;28;20471;-72
2023/02/11 06:22:39;;;;;;;39.20;20.53;;;;;;;;;;5100409;28;20471;-72
2023/02/11 06:25:07;;;;;;;38.37;22.60;;;;;;;;;;5100411;28;20472;-72
2023/02/11 06:27:35;;;;;;;40.90;21.43;;;;;;;;;;5100646;28;20443;-72
2023/02/11 06:30:03;;;;;;;40.17;23.53;;;;;;;;;;5100582;28;20443;-72
2023/02/11 06:32:31;;;;;;;37.07;20.93;;;;;;;;;;5086371;28;20532;-72
2023/02/11 06:35:12;;;;;;;40.33;22.00;;;;;;;;;;5099942;28;20447;-72
2023/02/11 06:37:41;;;;;;;37.43;21.37;;;;;;;;;;5100091;28;20895;-72
2023/02/11 06:40:09;;;;;;;41.67;23.63;;;;;;;;;;5100236;28;20472;-72
2023/02/11 06:42:38;;;;;;;37.87;20.87;;;;;;;;;;5099862;28;20452;-72
2023/02/11 06:45:07;;;;;;;37.30;20.77;;;;;;;;;;5089542;28;20485;-72
2023/02/11 06:47:35;;;;;;;44.00;21.50;;;;;;;;;;5097309;28;20464;-72
2023/02/11 06:50:04;;;;;;;40.87;21.87;;;;;;;;;;5099496;28;20471;-71
2023/02/11 06:52:32;;;;;;;35.90;21.27;;;;;;;;;;5099585;28;20839;-72
2023/02/11 06:55:02;;;;;;;35.37;21.57;;;;;;;;;;5100046;28;20443;-72
2023/02/11 06:57:30;;;;;;;38.93;19.63;;;;;;;;;;5099674;28;20871;-72
2023/02/11 06:59:58;;;;;;;33.60;19.50;;;;;;;;;;5099696;28;20950;-72
2023/02/11 07:02:26;;;;;;;36.37;21.47;;;;;;;;;;5086122;28;20474;-72
2023/02/11 07:04:54;;;;;;;42.37;23.03;;;;;;;;;;5097908;28;20542;-72
2023/02/11 07:07:22;;;;;;;34.57;20.40;;;;;;;;;;5099788;28;20471;-72
2023/02/11 07:09:50;;;;;;;40.47;22.30;;;;;;;;;;5095366;28;20464;-72
2023/02/11 07:12:20;;;;;;;40.30;23.43;;;;;;;;;;5085844;28;20487;-72
2023/02/11 07:14:47;;;;;;;43.63;23.83;;;;;;;;;;5080432;28;20561;-72
2023/02/11 07:17:16;;;;;;;42.03;21.73;;;;;;;;;;5078989;28;20813;-71
2023/02/11 07:19:44;;;;;;;39.17;22.00;;;;;;;;;;5087253;28;20468;-73
2023/02/11 07:22:11;;;;;;;35.17;20.93;;;;;;;;;;5079759;28;20953;-73
2023/02/11 07:24:40;;;;;;;36.50;21.93;;;;;;;;;;5077984;28;20481;-72
2023/02/11 07:27:08;;;;;;;35.17;20.43;;;;;;;;;;5087040;28;20535;-72
2023/02/11 07:29:37;;;;;;;39.50;23.10;;;;;;;;;;5098996;28;20527;-73
2023/02/11 07:32:05;;;;;;;44.43;24.57;;;;;;;;;;5096238;28;20474;-72
2023/02/11 07:34:33;;;;;;;40.77;23.40;;;;;;;;;;5082303;28;20551;-72
2023/02/11 07:37:01;;;;;;;45.30;25.07;;;;;;;;;;5098851;28;20842;-72
2023/02/11 07:39:29;;;;;;;40.80;23.70;;;;;;;;;;5098918;28;20444;-72
2023/02/11 07:41:58;;;;;;;42.30;24.70;;;;;;;;;;5098954;28;20951;-72
2023/02/11 07:44:27;;;;;;;42.13;23.93;;;;;;;;;;5090265;28;20467;-71
2023/02/11 07:46:56;;;;;;;42.63;22.43;;;;;;;;;;5098861;28;20942;-72
2023/02/11 07:49:24;;;;;;;41.33;25.10;;;;;;;;;;5098588;28;20447;-71
2023/02/11 07:51:52;;;;;;;47.30;24.57;;;;;;;;;;5098674;28;20452;-72
2023/02/11 07:54:20;;;;;;;39.60;22.50;;;;;;;;;;5098476;28;20483;-71
2023/02/11 07:56:48;;;;;;;46.90;24.60;;;;;;;;;;5098912;28;20530;-71
2023/02/11 07:59:16;;;;;;;50.87;25.83;;;;;;;;;;5098895;28;20444;-72
2023/02/11 08:01:44;;;;;;;42.13;23.70;;;;;;;;;;5084844;28;20455;-72
2023/02/11 08:04:14;;;;;;;45.93;26.67;;;;;;;;;;5097656;28;20475;-72
2023/02/11 08:06:43;;;;;;;57.57;25.57;;;;;;;;;;5093810;28;20520;-72
2023/02/11 08:09:15;;;;;;;49.03;25.23;;;;;;;;;;5089886;28;20444;-72
2023/02/11 08:11:43;;;;;;;47.13;25.20;;;;;;;;;;5098569;28;20443;-71
2023/02/11 08:14:12;;;;;;;44.80;25.00;;;;;;;;;;5093398;28;20508;-71
2023/02/11 08:16:41;;;;;;;50.33;25.17;;;;;;;;;;5078422;28;20819;-72
2023/02/11 08:19:11;;;;;;;49.70;27.37;;;;;;;;;;5086123;28;20459;-72
2023/02/11 08:21:41;;;;;;;48.43;24.80;;;;;;;;;;5084675;28;20856;-72
2023/02/11 08:24:09;;;;;;;48.23;26.17;;;;;;;;;;5088021;28;20476;-72
2023/02/11 08:26:37;;;;;;;48.83;26.13;;;;;;;;;;5089772;28;20454;-72
2023/02/11 08:29:07;;;;;;;45.17;25.53;;;;;;;;;;5098270;28;20471;-71
2023/02/11 08:31:36;;;;;;;48.03;27.50;;;;;;;;;;5098367;28;20961;-71
2023/02/11 08:34:04;;;;;;;46.30;26.17;;;;;;;;;;5096978;28;20488;-72
2023/02/11 08:36:33;;;;;;;48.47;25.83;;;;;;;;;;5096268;28;20467;-72
2023/02/11 08:39:05;;;;;;;49.23;25.13;;;;;;;;;;5086006;28;20781;-72
2023/02/11 08:41:45;;;;;;;50.10;26.20;;;;;;;;;;5098032;28;20534;-71
2023/02/11 08:44:13;;;;;;;47.70;26.23;;;;;;;;;;5088270;28;20475;-71
2023/02/11 08:46:41;;;;;;;49.30;27.10;;;;;;;;;;5092343;28;20524;-72
2023/02/11 08:49:09;;;;;;;46.27;25.90;;;;;;;;;;5089981;28;20981;-72
2023/02/11 08:51:37;;;;;;;48.83;27.07;;;;;;;;;;5097705;28;20869;-72
2023/02/11 08:54:08;;;;;;;49.00;27.93;;;;;;;;;;5097647;28;20522;-71
2023/02/11 08:56:37;;;;;;;52.30;27.93;;;;;;;;;;5098038;28;20451;-72
2023/02/11 08:59:05;;;;;;;55.77;29.50;;;;;;;;;;5096514;28;20469;-71
2023/02/11 09:01:33;;;;;;;47.13;27.97;;;;;;;;;;5090362;28;20456;-72
2023/02/11 09:04:01;;;;;;;57.97;30.60;;;;;;;;;;5089952;28;20476;-72
2023/02/11 09:06:29;;;;;;;45.80;27.60;;;;;;;;;;5078900;28;20468;-72
2023/02/11 09:08:57;;;;;;;50.33;29.40;;;;;;;;;;5077849;28;20459;-71
2023/02/11 09:11:28;;;;;;;46.30;26.20;;;;;;;;;;5086623;28;20867;-72
2023/02/11 09:13:56;;;;;;;49.07;27.53;;;;;;;;;;5097276;28;20542;-71
2023/02/11 09:16:26;;;;;;;45.87;26.53;;;;;;;;;;5088990;28;20474;-71
2023/02/11 09:18:55;;;;;;;53.77;28.30;;;;;;;;;;5077655;28;20464;-71
2023/02/11 09:21:23;;;;;;;52.77;28.30;;;;;;;;;;5083138;28;20491;-73
2023/02/11 09:23:51;;;;;;;50.60;29.03;;;;;;;;;;5097454;28;20460;-71
2023/02/11 09:26:20;;;;;;;52.20;29.10;;;;;;;;;;5083539;28;20935;-72
2023/02/11 09:28:50;;;;;;;47.27;28.93;;;;;;;;;;5093750;28;20467;-73
2023/02/11 09:31:19;;;;;;;56.53;27.90;;;;;;;;;;5096907;28;20456;-72
2023/02/11 09:33:48;;;;;;;51.03;27.47;;;;;;;;;;5097395;28;20562;-72
2023/02/11 09:36:18;;;;;;;45.27;27.30;;;;;;;;;;5097016;28;20883;-71
2023/02/11 09:38:46;;;;;;;47.97;28.33;;;;;;;;;;5097686;28;20439;-71
2023/02/11 09:41:24;;;;;;;49.27;27.87;;;;;;;;;;5097395;28;20560;-72
2023/02/11 09:43:56;;;;;;;55.10;29.33;;;;;;;;;;5086033;28;20466;-72
2023/02/11 09:46:24;;;;;;;48.80;26.60;;;;;;;;;;5085064;28;20455;-72
2023/02/11 09:48:54;;;;;;;44.87;26.30;;;;;;;;;;5101347;28;20451;-71
2023/02/11 09:51:26;;;;;;;48.60;27.93;;;;;;;;;;5083212;28;20880;-71
2023/02/11 09:53:57;;;;;;;54.27;28.83;;;;;;;;;;5092405;28;20483;-72
2023/02/11 09:56:28;;;;;;;46.93;29.50;;;;;;;;;;5100903;28;20500;-71
2023/02/11 09:58:57;;;;;;;49.80;29.77;;;;;;;;;;5101179;28;20475;-72
2023/02/11 10:01:30;;;;;;;53.10;28.53;;;;;;;;;;5100754;28;20439;-72
2023/02/11 10:04:02;;;;;;;48.50;29.33;;;;;;;;;;5100309;28;20471;-71
2023/02/11 10:06:39;;;;;;;49.40;29.63;;;;;;;;;;5100945;28;20533;-71
2023/02/11 10:09:22;;;;;;;47.47;27.63;;;;;;;;;;5100711;28;20916;-72
2023/02/11 10:11:55;;;;;;;46.60;27.60;;;;;;;;;;5098663;28;20453;-71
2023/02/11 10:14:31;;;;;;;47.00;27.57;;;;;;;;;;5100524;28;20581;-71
2023/02/11 10:17:07;;;;;;;52.43;27.57;;;;;;;;;;5087917;28;20479;-72
2023/02/11 10:19:41;;;;;;;48.87;26.40;;;;;;;;;;5100095;28;20467;-71
2023/02/11 10:22:12;;;;;;;50.07;30.67;;;;;;;;;;5099638;28;21010;-71
2023/02/11 10:24:41;;;;;;;48.47;27.10;;;;;;;;;;5100644;28;20471;-71
2023/02/11 10:27:16;;;;;;;47.27;27.50;;;;;;;;;;5100358;28;20477;-71
2023/02/11 10:29:47;;;;;;;48.50;27.37;;;;;;;;;;5100526;28;20447;-71
2023/02/11 10:32:22;;;;;;;43.47;26.20;;;;;;;;;;5100628;28;20480;-72
2023/02/11 10:34:51;;;;;;;46.20;26.77;;;;;;;;;;5099726;28;20849;-71
2023/02/11 10:37:18;;;;;;;44.67;27.70;;;;;;;;;;5100090;28;20503;-72
2023/02/11 10:39:46;;;;;;;47.67;28.00;;;;;;;;;;5100356;28;20531;-71
2023/02/11 10:42:14;;;;;;;49.43;28.73;;;;;;;;;;5100325;28;20442;-71
2023/02/11 10:44:48;;;;;;;45.93;25.27;;;;;;;;;;5093490;28;20508;-71
2023/02/11 10:47:20;;;;;;;43.33;26.00;;;;;;;;;;5093325;28;20462;-71
2023/02/11 10:49:48;;;;;;;47.10;26.57;;;;;;;;;;5099523;28;20951;-71
2023/02/11 10:52:22;;;;;;;48.03;26.53;;;;;;;;;;5099880;28;20431;-71
2023/02/11 10:54:58;;;;;;;43.13;25.73;;;;;;;;;;5099991;28;20482;-71
2023/02/11 10:57:27;;;;;;;42.03;25.03;;;;;;;;;;5099436;28;20850;-71
2023/02/11 10:59:58;;;;;;;42.77;24.87;;;;;;;;;;5100115;28;20448;-71
2023/02/11 11:02:33;;;;;;;43.80;25.97;;;;;;;;;;5099937;28;20475;-71
2023/02/11 11:05:03;;;;;;;43.57;25.63;;;;;;;;;;5099527;28;20446;-71
2023/02/11 11:07:31;;;;;;;43.70;28.03;;;;;;;;;;5100053;28;20444;-71
2023/02/11 11:10:02;;;;;;;47.43;26.07;;;;;;;;;;5099453;28;20519;-71
2023/02/11 11:12:32;;;;;;;41.60;24.97;;;;;;;;;;5087068;28;20451;-71
2023/02/11 11:15:01;;;;;;;46.73;25.30;;;;;;;;;;5099318;28;20479;-71
2023/02/11 11:17:31;;;;;;;45.20;26.00;;;;;;;;;;5090374;28;20455;-72
2023/02/11 11:20:13;;;;;;;43.20;25.30;;;;;;;;;;5099191;28;20450;-71
2023/02/11 11:22:42;;;;;;;46.33;25.20;;;;;;;;;;5097132;28;20471;-71
2023/02/11 11:25:21;;;;;;;41.63;25.37;;;;;;;;;;5099480;28;20475;-71
2023/02/11 11:27:49;;;;;;;46.63;25.20;;;;;;;;;;5094023;28;20979;-71
2023/02/11 11:30:18;;;;;;;43.00;25.40;;;;;;;;;;5081742;28;20483;-71
2023/02/11 11:32:47;;;;;;;41.03;24.07;;;;;;;;;;5094160;28;20495;-71
2023/02/11 11:35:23;;;;;;;46.97;23.87;;;;;;;;;;5088762;28;20484;-71
2023/02/11 11:37:54;;;;;;;40.97;24.90;;;;;;;;;;5083703;28;20460;-72
2023/02/11 11:40:23;;;;;;;43.63;25.47;;;;;;;;;;5084815;28;20515;-71
2023/02/11 11:43:06;;;;;;;40.70;23.37;;;;;;;;;;5098864;28;20255;-71
2023/02/11 11:45:34;;;;;;;46.60;25.10;;;;;;;;;;5090350;28;20251;-71
2023/02/11 11:48:06;;;;;;;38.90;23.60;;;;;;;;;;5094218;28;20220;-71
2023/02/11 11:50:35;;;;;;;40.37;22.17;;;;;;;;;;5098514;28;20581;-70
2023/02/11 11:53:07;;;;;;;39.77;23.30;;;;;;;;;;5084440;28;20248;-71
2023/02/11 11:55:38;;;;;;;39.37;22.97;;;;;;;;;;5098613;28;20637;-70
2023/02/11 11:58:10;;;;;;;42.37;22.97;;;;;;;;;;5098744;28;20233;-70
2023/02/11 12:00:43;;;;;;;34.73;21.60;;;;;;;;;;5098971;28;20237;-71
2023/02/11 12:03:29;;;;;;;39.80;21.60;;;;;;;;;;5084614;28;20222;-70
2023/02/11 12:06:07;;;;;;;38.27;22.83;;;;;;;;;;5083902;28;20194;-71
2023/02/11 12:08:41;;;;;;;31.67;20.60;;;;;;;;;;5097543;28;20197;-71
2023/02/11 12:11:12;;;;;;;40.90;20.50;;;;;;;;;;5098332;28;20530;-71
2023/02/11 12:13:49;;;;;;;35.03;21.03;;;;;;;;;;5098289;28;20460;-73
2023/02/11 12:16:21;;;;;;;37.87;20.90;;;;;;;;;;5098437;28;20485;-71
2023/02/11 12:19:05;;;;;;;34.70;21.40;;;;;;;;;;5097955;28;20448;-71
2023/02/11 12:21:39;;;;;;;34.77;21.23;;;;;;;;;;5081566;28;20222;-71
2023/02/11 12:24:17;;;;;;;37.27;20.23;;;;;;;;;;5092215;28;21020;-71
2023/02/11 12:26:47;;;;;;;37.40;21.33;;;;;;;;;;5087644;28;20478;-71
2023/02/11 12:29:21;;;;;;;36.03;21.97;;;;;;;;;;5098173;28;20478;-71
2023/02/11 12:31:58;;;;;;;34.40;21.83;;;;;;;;;;5082791;28;20455;-71
2023/02/11 12:34:32;;;;;;;35.10;20.50;;;;;;;;;;5097377;28;20495;-71
2023/02/11 12:37:06;;;;;;;31.83;20.97;;;;;;;;;;5097746;28;20233;-71
2023/02/11 12:39:39;;;;;;;38.53;21.83;;;;;;;;;;5097847;28;20201;-71
2023/02/11 12:45:19;;;;;;;34.63;21.10;;;;;;;;;;5094828;28;20202;-71
2023/02/11 12:47:54;;;;;;;32.80;20.67;;;;;;;;;;5095692;28;20201;-71
2023/02/11 12:50:25;;;;;;;32.27;19.60;;;;;;;;;;5097054;28;20296;-71
2023/02/11 12:53:00;;;;;;;41.27;20.87;;;;;;;;;;5096892;28;20600;-71
2023/02/11 12:55:29;;;;;;;33.20;19.17;;;;;;;;;;5094726;28;20236;-71
2023/02/11 12:57:58;;;;;;;37.27;21.07;;;;;;;;;;5083782;28;20704;-71
2023/02/11 13:00:30;;;;;;;32.23;19.23;;;;;;;;;;5097892;28;20237;-71
2023/02/11 13:03:00;;;;;;;31.83;18.17;;;;;;;;;;5097888;28;20257;-71
2023/02/11 13:05:31;;;;;;;30.33;18.57;;;;;;;;;;5097383;28;20668;-72
2023/02/11 13:08:03;;;;;;;32.70;19.33;;;;;;;;;;5094313;28;20313;-71
2023/02/11 13:10:33;;;;;;;27.77;16.67;;;;;;;;;;5088139;28;20636;-71
2023/02/11 13:13:17;;;;;;;32.57;18.23;;;;;;;;;;5097391;28;20678;-71
2023/02/11 13:15:48;;;;;;;29.80;18.03;;;;;;;;;;5094554;28;20289;-71
2023/02/11 13:18:25;;;;;;;32.87;18.13;;;;;;;;;;5097449;28;20308;-71
2023/02/11 13:20:56;;;;;;;32.27;19.10;;;;;;;;;;5089212;28;20205;-71
2023/02/11 13:23:29;;;;;;;29.90;17.20;;;;;;;;;;5100585;28;20267;-71
2023/02/11 13:26:02;;;;;;;33.70;19.57;;;;;;;;;;5101546;28;20200;-71
2023/02/11 13:28:36;;;;;;;28.27;17.97;;;;;;;;;;5101703;28;20212;-71
2023/02/11 13:31:06;;;;;;;28.73;16.27;;;;;;;;;;5101303;28;20682;-71
2023/02/11 13:33:35;;;;;;;29.23;16.23;;;;;;;;;;5101574;28;20233;-71
2023/02/11 13:36:17;;;;;;;27.93;16.77;;;;;;;;;;5100701;28;20298;-71
2023/02/11 13:38:54;;;;;;;27.03;16.70;;;;;;;;;;5101239;28;20549;-71
2023/02/11 13:41:24;;;;;;;28.10;16.43;;;;;;;;;;5101286;28;20288;-71
2023/02/11 13:44:00;;;;;;;25.73;16.40;;;;;;;;;;5096315;28;20224;-71
2023/02/11 13:46:29;;;;;;;26.93;16.13;;;;;;;;;;5087638;28;20670;-71
2023/02/11 13:48:58;;;;;;;27.57;16.47;;;;;;;;;;5100604;28;20292;-72
2023/02/11 13:51:37;;;;;;;24.27;15.80;;;;;;;;;;5100854;28;20680;-71
2023/02/11 13:54:07;;;;;;;29.50;15.30;;;;;;;;;;5100865;28;20257;-71
2023/02/11 13:56:36;;;;;;;29.50;16.80;;;;;;;;;;5100813;28;20261;-71
2023/02/11 13:59:05;;;;;;;27.47;16.43;;;;;;;;;;5100819;28;20209;-71
2023/02/11 14:01:41;;;;;;;26.13;14.60;;;;;;;;;;5101044;28;20216;-73
2023/02/11 14:10:34;;;;;;;28.23;15.93;;;;;;;;;;5098394;28;20690;-71
2023/02/11 14:13:06;;;;;;;29.00;16.80;;;;;;;;;;5099732;28;20222;-71
2023/02/11 14:15:41;;;;;;;28.90;17.00;;;;;;;;;;5099084;28;20213;-71
2023/02/11 14:18:27;;;;;;;28.37;16.80;;;;;;;;;;5090771;28;20288;-71
2023/02/11 14:21:06;;;;;;;25.93;16.13;;;;;;;;;;5093157;28;20202;-72
2023/02/11 14:23:36;;;;;;;29.50;16.10;;;;;;;;;;5095101;28;20228;-72
2023/02/11 14:26:13;;;;;;;28.70;17.47;;;;;;;;;;5086482;28;20202;-72
2023/02/11 14:28:45;;;;;;;25.47;15.30;;;;;;;;;;5100261;28;20292;-71
2023/02/11 14:31:15;;;;;;;27.93;15.00;;;;;;;;;;5099391;28;20205;-71
2023/02/11 14:33:52;;;;;;;30.80;17.60;;;;;;;;;;5099838;28;20757;-71
2023/02/11 14:36:29;;;;;;;26.17;16.60;;;;;;;;;;5099842;28;20264;-70
2023/02/11 14:39:02;;;;;;;29.10;16.57;;;;;;;;;;5100182;28;20200;-70
2023/02/11 14:41:35;;;;;;;30.83;16.30;;;;;;;;;;5100333;28;20210;-70
2023/02/11 14:44:04;;;;;;;31.07;17.50;;;;;;;;;;5087017;28;20227;-71
2023/02/11 14:46:33;;;;;;;24.40;15.63;;;;;;;;;;5099817;28;20264;-71
2023/02/11 14:49:02;;;;;;;30.90;18.13;;;;;;;;;;5097021;28;20288;-72
2023/02/11 14:51:31;;;;;;;29.13;17.17;;;;;;;;;;5088904;28;20205;-71